sensor_id;sensor_type;location;lat;lon;timestamp;P1;durP1;ratioP1;P2;durP2;ratioP2
33644;SDS011;19986;48.190;16.366;2022-12-16T05:04:39;48.78;;;46.28;;
33644;SDS011;19986;48.190;16.366;2022-12-16T05:07:27;50.42;;;47.83;;
33644;SDS011;19986;48.190;16.366;2022-12-16T05:10:12;51.78;;;49.08;;
33644;SDS011;19986;48.190;16.366;2022-12-16T05:13:00;49.30;;;46.80;;
33644;SDS011;19986;48.190;16.366;2022-12-16T05:15:44;50.60;;;47.90;;
33644;SDS011;19986;48.190;16.366;2022-12-16T05:18:29;50.75;;;47.97;;
33644;SDS011;19986;48.190;16.366;2022-12-16T05:21:13;50.08;;;47.38;;
33644;SDS011;19986;48.190;16.366;2022-12-16T05:24:03;50.47;;;47.63;;
33644;SDS011;19986;48.190;16.366;2022-12-16T05:26:47;51.75;;;48.75;;
33644;SDS011;19986;48.190;16.366;2022-12-16T05:29:32;50.17;;;47.33;;
33644;SDS011;19986;48.190;16.366;2022-12-16T05:32:16;49.92;;;47.33;;
33644;SDS011;19986;48.190;16.366;2022-12-16T05:35:01;48.28;;;45.65;;
33644;SDS011;19986;48.190;16.366;2022-12-16T05:37:45;47.25;;;44.85;;
33644;SDS011;19986;48.190;16.366;2022-12-16T05:40:30;47.03;;;44.47;;
33644;SDS011;19986;48.190;16.366;2022-12-16T05:43:15;48.08;;;45.58;;
33644;SDS011;19986;48.190;16.366;2022-12-16T05:45:59;50.15;;;47.53;;
33644;SDS011;19986;48.190;16.366;2022-12-16T05:48:44;52.25;;;49.45;;
33644;SDS011;19986;48.190;16.366;2022-12-16T05:51:28;52.97;;;50.17;;
33644;SDS011;19986;48.190;16.366;2022-12-16T05:54:14;48.72;;;46.08;;
33644;SDS011;19986;48.190;16.366;2022-12-16T05:56:59;52.53;;;49.55;;
33644;SDS011;19986;48.190;16.366;2022-12-16T05:59:43;54.60;;;51.58;;
33644;SDS011;19986;48.190;16.366;2022-12-16T06:02:28;52.67;;;49.47;;
33644;SDS011;19986;48.190;16.366;2022-12-16T06:05:13;52.58;;;49.65;;
33644;SDS011;19986;48.190;16.366;2022-12-16T06:07:57;54.28;;;51.28;;
33644;SDS011;19986;48.190;16.366;2022-12-16T06:10:42;53.75;;;50.72;;
33644;SDS011;19986;48.190;16.366;2022-12-16T06:13:26;52.92;;;49.92;;
33644;SDS011;19986;48.190;16.366;2022-12-16T06:16:11;53.97;;;50.67;;
33644;SDS011;19986;48.190;16.366;2022-12-16T06:18:57;52.05;;;48.83;;
33644;SDS011;19986;48.190;16.366;2022-12-16T06:21:42;55.22;;;51.92;;
33644;SDS011;19986;48.190;16.366;2022-12-16T06:24:27;52.25;;;49.35;;
33644;SDS011;19986;48.190;16.366;2022-12-16T06:27:12;53.85;;;50.60;;
33644;SDS011;19986;48.190;16.366;2022-12-16T06:29:56;54.10;;;50.85;;
33644;SDS011;19986;48.190;16.366;2022-12-16T06:32:51;56.10;;;52.80;;
33644;SDS011;19986;48.190;16.366;2022-12-16T06:35:36;52.83;;;49.65;;
33644;SDS011;19986;48.190;16.366;2022-12-16T06:38:21;55.42;;;52.28;;
33644;SDS011;19986;48.190;16.366;2022-12-16T06:41:05;52.50;;;49.50;;
33644;SDS011;19986;48.190;16.366;2022-12-16T06:43:51;53.10;;;50.03;;
33644;SDS011;19986;48.190;16.366;2022-12-16T06:46:35;54.05;;;50.85;;
33644;SDS011;19986;48.190;16.366;2022-12-16T06:49:20;55.40;;;52.20;;
33644;SDS011;19986;48.190;16.366;2022-12-16T06:52:04;52.15;;;48.95;;
33644;SDS011;19986;48.190;16.366;2022-12-16T06:54:49;55.50;;;52.17;;
33644;SDS011;19986;48.190;16.366;2022-12-16T06:57:33;55.22;;;51.83;;
33644;SDS011;19986;48.190;16.366;2022-12-16T07:00:18;56.22;;;52.58;;
33644;SDS011;19986;48.190;16.366;2022-12-16T07:03:02;54.80;;;51.35;;
33644;SDS011;19986;48.190;16.366;2022-12-16T07:05:51;55.53;;;52.03;;
33644;SDS011;19986;48.190;16.366;2022-12-16T07:08:36;56.53;;;52.88;;
33644;SDS011;19986;48.190;16.366;2022-12-16T07:11:21;54.97;;;51.25;;
33644;SDS011;19986;48.190;16.366;2022-12-16T07:14:19;53.78;;;50.28;;
33644;SDS011;19986;48.190;16.366;2022-12-16T07:17:04;56.83;;;53.22;;
33644;SDS011;19986;48.190;16.366;2022-12-16T07:19:48;54.53;;;50.83;;
33644;SDS011;19986;48.190;16.366;2022-12-16T07:22:41;58.08;;;54.15;;
33644;SDS011;19986;48.190;16.366;2022-12-16T07:25:28;55.40;;;51.80;;
33644;SDS011;19986;48.190;16.366;2022-12-16T07:28:13;55.55;;;51.95;;
33644;SDS011;19986;48.190;16.366;2022-12-16T07:30:58;54.65;;;51.17;;
33644;SDS011;19986;48.190;16.366;2022-12-16T07:33:42;56.88;;;53.30;;
33644;SDS011;19986;48.190;16.366;2022-12-16T07:36:27;56.13;;;52.58;;
33644;SDS011;19986;48.190;16.366;2022-12-16T07:39:11;55.72;;;52.22;;
33644;SDS011;19986;48.190;16.366;2022-12-16T07:41:56;56.95;;;53.13;;
33644;SDS011;19986;48.190;16.366;2022-12-16T07:44:41;56.08;;;52.17;;
33644;SDS011;19986;48.190;16.366;2022-12-16T07:47:26;56.28;;;52.47;;
33644;SDS011;19986;48.190;16.366;2022-12-16T07:50:10;57.25;;;53.63;;
33644;SDS011;19986;48.190;16.366;2022-12-16T07:52:55;54.38;;;50.75;;
33644;SDS011;19986;48.190;16.366;2022-12-16T07:55:40;56.15;;;52.38;;
33644;SDS011;19986;48.190;16.366;2022-12-16T07:58:26;56.75;;;53.17;;
33644;SDS011;19986;48.190;16.366;2022-12-16T08:01:12;56.58;;;52.97;;
33644;SDS011;19986;48.190;16.366;2022-12-16T08:03:57;55.95;;;52.35;;
33644;SDS011;19986;48.190;16.366;2022-12-16T08:06:41;55.08;;;51.47;;
33644;SDS011;19986;48.190;16.366;2022-12-16T08:09:26;52.65;;;49.33;;
33644;SDS011;19986;48.190;16.366;2022-12-16T08:12:11;52.80;;;49.45;;
33644;SDS011;19986;48.190;16.366;2022-12-16T08:14:55;56.80;;;53.05;;
33644;SDS011;19986;48.190;16.366;2022-12-16T08:17:49;54.63;;;51.03;;
33644;SDS011;19986;48.190;16.366;2022-12-16T08:20:35;55.55;;;51.80;;
33644;SDS011;19986;48.190;16.366;2022-12-16T08:23:19;56.53;;;52.92;;
33644;SDS011;19986;48.190;16.366;2022-12-16T08:26:04;57.17;;;53.50;;
33644;SDS011;19986;48.190;16.366;2022-12-16T08:28:50;55.92;;;52.13;;
33644;SDS011;19986;48.190;16.366;2022-12-16T08:31:37;56.05;;;52.42;;
33644;SDS011;19986;48.190;16.366;2022-12-16T08:34:22;57.03;;;53.28;;
33644;SDS011;19986;48.190;16.366;2022-12-16T08:37:07;53.67;;;50.17;;
33644;SDS011;19986;48.190;16.366;2022-12-16T08:39:52;54.65;;;50.95;;
33644;SDS011;19986;48.190;16.366;2022-12-16T08:42:37;54.75;;;50.95;;
33644;SDS011;19986;48.190;16.366;2022-12-16T08:45:22;58.78;;;54.63;;
33644;SDS011;19986;48.190;16.366;2022-12-16T08:48:07;60.97;;;56.45;;
33644;SDS011;19986;48.190;16.366;2022-12-16T08:50:51;59.95;;;55.53;;
33644;SDS011;19986;48.190;16.366;2022-12-16T08:53:37;59.70;;;55.33;;
33644;SDS011;19986;48.190;16.366;2022-12-16T08:56:22;63.05;;;58.45;;
33644;SDS011;19986;48.190;16.366;2022-12-16T08:59:07;60.83;;;56.53;;
33644;SDS011;19986;48.190;16.366;2022-12-16T09:01:51;60.50;;;56.40;;
33644;SDS011;19986;48.190;16.366;2022-12-16T09:04:36;57.08;;;53.25;;
33644;SDS011;19986;48.190;16.366;2022-12-16T09:07:21;56.42;;;52.67;;
33644;SDS011;19986;48.190;16.366;2022-12-16T09:10:05;57.55;;;53.95;;
33644;SDS011;19986;48.190;16.366;2022-12-16T09:12:50;54.85;;;51.17;;
33644;SDS011;19986;48.190;16.366;2022-12-16T09:15:34;54.97;;;51.25;;
33644;SDS011;19986;48.190;16.366;2022-12-16T09:18:18;55.00;;;51.17;;
33644;SDS011;19986;48.190;16.366;2022-12-16T09:21:05;56.67;;;52.80;;
33644;SDS011;19986;48.190;16.366;2022-12-16T09:23:50;57.72;;;53.83;;
33644;SDS011;19986;48.190;16.366;2022-12-16T09:26:34;56.35;;;52.35;;
33644;SDS011;19986;48.190;16.366;2022-12-16T09:29:19;59.55;;;55.33;;
33644;SDS011;19986;48.190;16.366;2022-12-16T09:32:03;58.42;;;54.25;;
33644;SDS011;19986;48.190;16.366;2022-12-16T09:34:48;63.03;;;58.63;;
33644;SDS011;19986;48.190;16.366;2022-12-16T09:37:32;60.95;;;56.55;;
33644;SDS011;19986;48.190;16.366;2022-12-16T09:40:18;60.25;;;56.05;;
33644;SDS011;19986;48.190;16.366;2022-12-16T09:49:26;62.92;;;58.38;;
33644;SDS011;19986;48.190;16.366;2022-12-16T09:52:27;58.03;;;53.80;;
33644;SDS011;19986;48.190;16.366;2022-12-16T09:58:09;62.58;;;57.92;;
33644;SDS011;19986;48.190;16.366;2022-12-16T10:00:55;62.78;;;57.95;;
33644;SDS011;19986;48.190;16.366;2022-12-16T10:03:40;64.35;;;59.58;;
33644;SDS011;19986;48.190;16.366;2022-12-16T10:15:10;67.55;;;62.25;;
33644;SDS011;19986;48.190;16.366;2022-12-16T10:18:16;62.72;;;57.72;;
33644;SDS011;19986;48.190;16.366;2022-12-16T10:21:14;67.63;;;62.33;;
33644;SDS011;19986;48.190;16.366;2022-12-16T10:24:08;67.25;;;62.13;;
33644;SDS011;19986;48.190;16.366;2022-12-16T10:27:06;66.90;;;61.55;;
33644;SDS011;19986;48.190;16.366;2022-12-16T10:29:58;63.03;;;57.97;;
33644;SDS011;19986;48.190;16.366;2022-12-16T10:32:48;61.83;;;57.25;;
33644;SDS011;19986;48.190;16.366;2022-12-16T10:35:47;65.10;;;60.17;;
33644;SDS011;19986;48.190;16.366;2022-12-16T10:39:36;60.47;;;55.97;;
33644;SDS011;19986;48.190;16.366;2022-12-16T10:42:16;61.42;;;57.33;;
33644;SDS011;19986;48.190;16.366;2022-12-16T10:45:17;60.13;;;55.95;;
33644;SDS011;19986;48.190;16.366;2022-12-16T10:48:06;61.28;;;57.25;;
33644;SDS011;19986;48.190;16.366;2022-12-16T10:50:53;61.60;;;57.15;;
33644;SDS011;19986;48.190;16.366;2022-12-16T10:53:38;59.80;;;55.83;;
33644;SDS011;19986;48.190;16.366;2022-12-16T10:59:18;58.78;;;54.70;;
33644;SDS011;19986;48.190;16.366;2022-12-16T11:04:59;57.90;;;54.10;;
33644;SDS011;19986;48.190;16.366;2022-12-16T11:13:33;55.58;;;52.08;;
33644;SDS011;19986;48.190;16.366;2022-12-16T11:16:22;54.80;;;51.22;;
33644;SDS011;19986;48.190;16.366;2022-12-16T11:19:18;57.55;;;53.75;;
33644;SDS011;19986;48.190;16.366;2022-12-16T11:22:09;54.60;;;51.17;;
33644;SDS011;19986;48.190;16.366;2022-12-16T11:25:17;56.05;;;52.35;;
33644;SDS011;19986;48.190;16.366;2022-12-16T11:28:04;55.92;;;52.42;;
33644;SDS011;19986;48.190;16.366;2022-12-16T11:30:53;55.72;;;52.15;;
33644;SDS011;19986;48.190;16.366;2022-12-16T11:33:55;56.20;;;52.50;;
33644;SDS011;19986;48.190;16.366;2022-12-16T11:36:41;57.75;;;53.95;;
33644;SDS011;19986;48.190;16.366;2022-12-16T11:39:28;58.85;;;55.17;;
33644;SDS011;19986;48.190;16.366;2022-12-16T11:42:21;56.50;;;52.70;;
33644;SDS011;19986;48.190;16.366;2022-12-16T11:45:13;57.58;;;53.67;;
33644;SDS011;19986;48.190;16.366;2022-12-16T11:48:22;55.47;;;51.92;;
33644;SDS011;19986;48.190;16.366;2022-12-16T11:51:23;57.20;;;53.47;;
33644;SDS011;19986;48.190;16.366;2022-12-16T11:54:20;55.58;;;51.80;;
33644;SDS011;19986;48.190;16.366;2022-12-16T11:57:26;57.47;;;53.78;;
33644;SDS011;19986;48.190;16.366;2022-12-16T12:00:22;56.60;;;52.63;;
33644;SDS011;19986;48.190;16.366;2022-12-16T12:03:17;58.22;;;54.28;;
33644;SDS011;19986;48.190;16.366;2022-12-16T12:09:09;59.75;;;55.65;;
33644;SDS011;19986;48.190;16.366;2022-12-16T12:21:04;59.47;;;55.25;;
33644;SDS011;19986;48.190;16.366;2022-12-16T12:30:12;59.10;;;54.80;;
33644;SDS011;19986;48.190;16.366;2022-12-16T12:36:03;57.92;;;53.85;;
33644;SDS011;19986;48.190;16.366;2022-12-16T12:39:17;61.55;;;57.05;;
33644;SDS011;19986;48.190;16.366;2022-12-16T12:42:26;59.67;;;55.55;;
33644;SDS011;19986;48.190;16.366;2022-12-16T12:51:48;59.63;;;55.35;;
33644;SDS011;19986;48.190;16.366;2022-12-16T12:55:08;62.22;;;57.70;;
33644;SDS011;19986;48.190;16.366;2022-12-16T12:58:04;58.88;;;54.53;;
33644;SDS011;19986;48.190;16.366;2022-12-16T13:00:51;61.83;;;57.33;;
33644;SDS011;19986;48.190;16.366;2022-12-16T13:06:33;63.08;;;58.47;;
33644;SDS011;19986;48.190;16.366;2022-12-16T13:09:37;61.08;;;56.47;;
33644;SDS011;19986;48.190;16.366;2022-12-16T13:15:17;59.38;;;54.88;;
33644;SDS011;19986;48.190;16.366;2022-12-16T13:20:49;62.45;;;57.85;;
33644;SDS011;19986;48.190;16.366;2022-12-16T13:23:39;61.78;;;57.08;;
33644;SDS011;19986;48.190;16.366;2022-12-16T13:26:29;61.53;;;56.97;;
33644;SDS011;19986;48.190;16.366;2022-12-16T13:29:28;64.45;;;59.47;;
33644;SDS011;19986;48.190;16.366;2022-12-16T13:32:21;63.45;;;58.55;;
33644;SDS011;19986;48.190;16.366;2022-12-16T13:40:54;62.67;;;57.80;;
33644;SDS011;19986;48.190;16.366;2022-12-16T13:46:44;66.88;;;61.75;;
33644;SDS011;19986;48.190;16.366;2022-12-16T13:55:27;66.47;;;61.08;;
33644;SDS011;19986;48.190;16.366;2022-12-16T13:58:20;69.78;;;64.43;;
33644;SDS011;19986;48.190;16.366;2022-12-16T14:01:11;68.88;;;63.28;;
33644;SDS011;19986;48.190;16.366;2022-12-16T14:04:01;70.47;;;64.70;;
33644;SDS011;19986;48.190;16.366;2022-12-16T14:06:51;68.32;;;62.55;;
33644;SDS011;19986;48.190;16.366;2022-12-16T14:09:37;68.90;;;63.00;;
33644;SDS011;19986;48.190;16.366;2022-12-16T14:16:14;72.30;;;66.38;;
33644;SDS011;19986;48.190;16.366;2022-12-16T14:25:21;66.63;;;61.33;;
33644;SDS011;19986;48.190;16.366;2022-12-16T14:28:07;67.72;;;62.22;;
33644;SDS011;19986;48.190;16.366;2022-12-16T14:34:11;67.93;;;62.50;;
33644;SDS011;19986;48.190;16.366;2022-12-16T14:36:58;71.95;;;65.95;;
33644;SDS011;19986;48.190;16.366;2022-12-16T14:39:47;70.30;;;64.60;;
33644;SDS011;19986;48.190;16.366;2022-12-16T14:42:32;67.47;;;61.95;;
33644;SDS011;19986;48.190;16.366;2022-12-16T14:48:40;68.68;;;62.85;;
33644;SDS011;19986;48.190;16.366;2022-12-16T14:54:35;72.63;;;66.45;;
33644;SDS011;19986;48.190;16.366;2022-12-16T14:57:23;73.07;;;66.70;;
33644;SDS011;19986;48.190;16.366;2022-12-16T15:00:18;73.80;;;67.40;;
33644;SDS011;19986;48.190;16.366;2022-12-16T15:06:30;72.43;;;66.22;;
33644;SDS011;19986;48.190;16.366;2022-12-16T15:09:20;70.10;;;63.97;;
33644;SDS011;19986;48.190;16.366;2022-12-16T15:12:25;70.47;;;64.28;;
33644;SDS011;19986;48.190;16.366;2022-12-16T15:15:14;74.78;;;68.45;;
33644;SDS011;19986;48.190;16.366;2022-12-16T15:18:02;70.68;;;64.43;;
33644;SDS011;19986;48.190;16.366;2022-12-16T15:20:52;68.72;;;62.70;;
33644;SDS011;19986;48.190;16.366;2022-12-16T15:23:38;73.25;;;66.95;;
33644;SDS011;19986;48.190;16.366;2022-12-16T15:26:30;71.90;;;65.55;;
33644;SDS011;19986;48.190;16.366;2022-12-16T15:32:33;74.88;;;68.22;;
33644;SDS011;19986;48.190;16.366;2022-12-16T15:38:28;72.70;;;66.20;;
33644;SDS011;19986;48.190;16.366;2022-12-16T15:47:02;73.30;;;66.45;;
33644;SDS011;19986;48.190;16.366;2022-12-16T15:49:47;73.80;;;67.10;;
33644;SDS011;19986;48.190;16.366;2022-12-16T15:55:28;77.10;;;69.90;;
33644;SDS011;19986;48.190;16.366;2022-12-16T16:01:07;74.28;;;67.78;;
33644;SDS011;19986;48.190;16.366;2022-12-16T16:03:54;77.72;;;70.72;;
33644;SDS011;19986;48.190;16.366;2022-12-16T16:06:49;71.72;;;65.15;;
33644;SDS011;19986;48.190;16.366;2022-12-16T16:09:36;71.93;;;65.30;;
33644;SDS011;19986;48.190;16.366;2022-12-16T16:12:23;71.53;;;64.93;;
33644;SDS011;19986;48.190;16.366;2022-12-16T16:15:09;75.75;;;69.18;;
33644;SDS011;19986;48.190;16.366;2022-12-16T16:17:59;74.93;;;67.72;;
33644;SDS011;19986;48.190;16.366;2022-12-16T16:20:47;73.65;;;66.88;;
33644;SDS011;19986;48.190;16.366;2022-12-16T16:23:34;78.35;;;71.32;;
33644;SDS011;19986;48.190;16.366;2022-12-16T16:26:20;74.82;;;68.10;;
33644;SDS011;19986;48.190;16.366;2022-12-16T16:29:08;76.68;;;69.75;;
33644;SDS011;19986;48.190;16.366;2022-12-16T16:31:55;77.10;;;69.93;;
33644;SDS011;19986;48.190;16.366;2022-12-16T16:34:40;76.85;;;70.00;;
33644;SDS011;19986;48.190;16.366;2022-12-16T16:37:24;76.15;;;69.18;;
33644;SDS011;19986;48.190;16.366;2022-12-16T16:43:16;75.22;;;68.22;;
33644;SDS011;19986;48.190;16.366;2022-12-16T16:49:11;79.57;;;72.13;;
33644;SDS011;19986;48.190;16.366;2022-12-16T16:52:01;82.85;;;75.15;;
33644;SDS011;19986;48.190;16.366;2022-12-16T16:54:45;84.13;;;76.32;;
33644;SDS011;19986;48.190;16.366;2022-12-16T16:57:31;83.50;;;75.75;;
33644;SDS011;19986;48.190;16.366;2022-12-16T17:00:20;81.60;;;73.88;;
33644;SDS011;19986;48.190;16.366;2022-12-16T17:03:04;81.97;;;73.97;;
33644;SDS011;19986;48.190;16.366;2022-12-16T17:05:49;82.93;;;74.63;;
33644;SDS011;19986;48.190;16.366;2022-12-16T17:08:35;82.40;;;74.22;;
33644;SDS011;19986;48.190;16.366;2022-12-16T17:11:34;80.28;;;72.50;;
33644;SDS011;19986;48.190;16.366;2022-12-16T17:14:20;82.55;;;74.25;;
33644;SDS011;19986;48.190;16.366;2022-12-16T17:17:05;82.25;;;74.18;;
33644;SDS011;19986;48.190;16.366;2022-12-16T17:19:50;85.30;;;76.90;;
33644;SDS011;19986;48.190;16.366;2022-12-16T17:22:35;86.72;;;78.05;;
33644;SDS011;19986;48.190;16.366;2022-12-16T17:25:19;81.43;;;73.28;;
33644;SDS011;19986;48.190;16.366;2022-12-16T17:28:08;79.53;;;71.65;;
33644;SDS011;19986;48.190;16.366;2022-12-16T17:30:54;85.78;;;77.45;;
33644;SDS011;19986;48.190;16.366;2022-12-16T17:33:39;82.63;;;74.43;;
33644;SDS011;19986;48.190;16.366;2022-12-16T17:36:23;81.97;;;73.70;;
33644;SDS011;19986;48.190;16.366;2022-12-16T17:39:08;80.68;;;72.43;;
33644;SDS011;19986;48.190;16.366;2022-12-16T17:41:53;85.63;;;77.15;;
33644;SDS011;19986;48.190;16.366;2022-12-16T17:44:38;86.20;;;77.80;;
33644;SDS011;19986;48.190;16.366;2022-12-16T17:47:22;85.72;;;77.25;;
33644;SDS011;19986;48.190;16.366;2022-12-16T17:50:08;88.13;;;79.32;;
33644;SDS011;19986;48.190;16.366;2022-12-16T17:52:55;83.90;;;75.40;;
33644;SDS011;19986;48.190;16.366;2022-12-16T17:55:43;83.70;;;75.32;;
33644;SDS011;19986;48.190;16.366;2022-12-16T17:58:29;85.85;;;77.35;;
33644;SDS011;19986;48.190;16.366;2022-12-16T18:01:14;86.53;;;77.97;;
33644;SDS011;19986;48.190;16.366;2022-12-16T18:03:58;86.03;;;77.35;;
33644;SDS011;19986;48.190;16.366;2022-12-16T18:06:46;86.22;;;77.45;;
33644;SDS011;19986;48.190;16.366;2022-12-16T18:09:31;84.35;;;75.70;;
33644;SDS011;19986;48.190;16.366;2022-12-16T18:12:17;86.30;;;77.45;;
33644;SDS011;19986;48.190;16.366;2022-12-16T18:15:02;87.63;;;78.65;;
33644;SDS011;19986;48.190;16.366;2022-12-16T18:17:47;88.22;;;79.38;;
33644;SDS011;19986;48.190;16.366;2022-12-16T18:20:32;84.80;;;76.22;;
33644;SDS011;19986;48.190;16.366;2022-12-16T18:23:18;90.47;;;81.50;;
33644;SDS011;19986;48.190;16.366;2022-12-16T18:26:06;82.25;;;74.10;;
33644;SDS011;19986;48.190;16.366;2022-12-16T18:28:52;83.85;;;75.57;;
33644;SDS011;19986;48.190;16.366;2022-12-16T18:31:40;87.07;;;78.60;;
33644;SDS011;19986;48.190;16.366;2022-12-16T18:34:27;85.78;;;77.40;;
33644;SDS011;19986;48.190;16.366;2022-12-16T18:37:21;86.13;;;77.50;;
33644;SDS011;19986;48.190;16.366;2022-12-16T18:40:07;84.30;;;75.82;;
33644;SDS011;19986;48.190;16.366;2022-12-16T18:42:54;86.95;;;78.35;;
33644;SDS011;19986;48.190;16.366;2022-12-16T18:45:39;85.97;;;77.47;;
33644;SDS011;19986;48.190;16.366;2022-12-16T18:48:23;84.28;;;76.10;;
33644;SDS011;19986;48.190;16.366;2022-12-16T18:51:08;88.57;;;79.93;;
33644;SDS011;19986;48.190;16.366;2022-12-16T18:53:52;87.93;;;79.43;;
33644;SDS011;19986;48.190;16.366;2022-12-16T18:56:39;81.13;;;72.97;;
33644;SDS011;19986;48.190;16.366;2022-12-16T18:59:43;85.13;;;77.00;;
33644;SDS011;19986;48.190;16.366;2022-12-16T19:02:28;83.88;;;75.95;;
33644;SDS011;19986;48.190;16.366;2022-12-16T19:05:13;85.78;;;77.10;;
33644;SDS011;19986;48.190;16.366;2022-12-16T19:07:59;86.93;;;78.32;;
33644;SDS011;19986;48.190;16.366;2022-12-16T19:10:46;87.32;;;79.03;;
33644;SDS011;19986;48.190;16.366;2022-12-16T19:13:31;88.15;;;79.57;;
33644;SDS011;19986;48.190;16.366;2022-12-16T19:16:18;85.70;;;77.60;;
33644;SDS011;19986;48.190;16.366;2022-12-16T19:19:03;86.03;;;77.47;;
33644;SDS011;19986;48.190;16.366;2022-12-16T19:21:49;86.10;;;77.68;;
33644;SDS011;19986;48.190;16.366;2022-12-16T19:24:36;87.72;;;78.93;;
33644;SDS011;19986;48.190;16.366;2022-12-16T19:27:28;88.05;;;79.28;;
33644;SDS011;19986;48.190;16.366;2022-12-16T19:30:13;84.80;;;76.00;;
33644;SDS011;19986;48.190;16.366;2022-12-16T19:33:00;84.93;;;76.45;;
33644;SDS011;19986;48.190;16.366;2022-12-16T19:35:44;86.07;;;77.47;;
33644;SDS011;19986;48.190;16.366;2022-12-16T19:38:44;91.28;;;82.40;;
33644;SDS011;19986;48.190;16.366;2022-12-16T19:41:28;85.20;;;76.80;;
33644;SDS011;19986;48.190;16.366;2022-12-16T19:44:13;91.20;;;82.30;;
33644;SDS011;19986;48.190;16.366;2022-12-16T19:47:13;86.97;;;78.13;;
33644;SDS011;19986;48.190;16.366;2022-12-16T19:49:59;89.30;;;80.60;;
33644;SDS011;19986;48.190;16.366;2022-12-16T19:52:46;88.28;;;79.70;;
33644;SDS011;19986;48.190;16.366;2022-12-16T19:55:31;87.45;;;78.80;;
33644;SDS011;19986;48.190;16.366;2022-12-16T19:58:19;87.43;;;79.03;;
33644;SDS011;19986;48.190;16.366;2022-12-16T20:01:19;90.65;;;81.72;;
33644;SDS011;19986;48.190;16.366;2022-12-16T20:04:04;86.00;;;77.63;;
33644;SDS011;19986;48.190;16.366;2022-12-16T20:06:50;88.03;;;79.55;;
33644;SDS011;19986;48.190;16.366;2022-12-16T20:09:34;86.63;;;78.40;;
33644;SDS011;19986;48.190;16.366;2022-12-16T20:12:19;84.95;;;76.60;;
33644;SDS011;19986;48.190;16.366;2022-12-16T20:15:04;86.28;;;78.07;;
33644;SDS011;19986;48.190;16.366;2022-12-16T20:17:49;85.55;;;76.78;;
33644;SDS011;19986;48.190;16.366;2022-12-16T20:20:34;85.45;;;76.97;;
33644;SDS011;19986;48.190;16.366;2022-12-16T20:23:18;84.28;;;76.10;;
33644;SDS011;19986;48.190;16.366;2022-12-16T20:26:18;82.05;;;74.18;;
33644;SDS011;19986;48.190;16.366;2022-12-16T20:29:02;81.60;;;73.97;;
33644;SDS011;19986;48.190;16.366;2022-12-16T20:31:49;83.05;;;75.40;;
33644;SDS011;19986;48.190;16.366;2022-12-16T20:34:45;83.43;;;75.53;;
33644;SDS011;19986;48.190;16.366;2022-12-16T20:37:31;84.97;;;77.07;;
33644;SDS011;19986;48.190;16.366;2022-12-16T20:40:17;83.68;;;75.90;;
33644;SDS011;19986;48.190;16.366;2022-12-16T20:43:02;84.13;;;76.10;;
33644;SDS011;19986;48.190;16.366;2022-12-16T20:45:47;87.25;;;78.88;;
33644;SDS011;19986;48.190;16.366;2022-12-16T20:48:32;85.13;;;76.88;;
33644;SDS011;19986;48.190;16.366;2022-12-16T20:51:17;84.90;;;76.88;;
33644;SDS011;19986;48.190;16.366;2022-12-16T20:54:02;90.35;;;81.60;;
33644;SDS011;19986;48.190;16.366;2022-12-16T20:56:46;86.63;;;78.50;;
33644;SDS011;19986;48.190;16.366;2022-12-16T20:59:32;85.70;;;77.40;;
